Terminal Aerodrome Forecast
Issued by NWS Tulsa, OK

Home | Current Version | Previous Version | Text Only | Print | Product List | Glossary On
Versions: 1 2 3 4 5 6 7 8 9 10 11 12 13 14 15 16
000
FTUS44 KTSA 220809 AAA
TAFTUL
TAF AMD
KTUL 220809Z 2208/2306 12004KT P6SM SCT015 OVC100
      TEMPO 2208/2210 3SM -TSRA BR BKN015CB
     FM221000 01005KT 3SM -RA BR OVC012
     FM221300 35015G21KT 3SM -RA BR OVC007
     FM221800 34018G28KT P6SM BKN025
     FM222100 34014G22KT P6SM BKN050=

USA.gov is the U.S. government's official web portal to all federal, state and local government web resources and services.